Time;durP1;ratioP1;P1;durP2;ratioP2;P2;SDS_P1;SDS_P2;PMS_P1;PMS_P2;Temp;Humidity;BMP_temperature;BMP_pressure;BME280_temperature;BME280_humidity;BME280_pressure;Samples;Min_cycle;Max_cycle;Signal;HPM_P1;HPM_P2
2023/05/22 00:01:25;;;;;;;5.70;5.20;;;19.60;69.10;;;;;;5004296;28;20210;-65
2023/05/22 00:03:53;;;;;;;5.47;5.07;;;19.60;69.00;;;;;;5028886;28;20214;-66
2023/05/22 00:06:19;;;;;;;5.93;5.43;;;19.60;69.10;;;;;;4996048;28;20219;-66
2023/05/22 00:08:46;;;;;;;5.60;5.10;;;19.60;69.00;;;;;;4993315;28;20340;-66
2023/05/22 00:11:12;;;;;;;5.97;5.43;;;19.60;69.00;;;;;;4995889;28;20287;-65
2023/05/22 00:13:38;;;;;;;5.50;5.00;;;19.60;69.00;;;;;;4995744;28;20199;-66
2023/05/22 00:16:04;;;;;;;5.68;5.18;;;19.60;69.00;;;;;;5003670;28;20215;-66
2023/05/22 00:18:31;;;;;;;5.60;5.10;;;19.60;69.10;;;;;;4995108;28;20192;-66
2023/05/22 00:20:57;;;;;;;5.90;5.40;;;19.60;69.00;;;;;;4995751;28;20188;-65
2023/05/22 00:23:26;;;;;;;5.97;5.47;;;19.60;69.00;;;;;;4992987;28;20196;-66
2023/05/22 00:25:52;;;;;;;5.47;4.97;;;19.60;69.00;;;;;;4992579;28;20212;-66
2023/05/22 00:28:18;;;;;;;5.70;5.20;;;19.60;69.10;;;;;;5000736;28;20227;-65
2023/05/22 00:30:44;;;;;;;5.43;4.93;;;19.60;69.00;;;;;;5017370;28;20727;-65
2023/05/22 00:33:11;;;;;;;5.60;5.03;;;19.60;69.00;;;;;;5016512;28;20192;-65
2023/05/22 00:35:37;;;;;;;5.80;5.30;;;19.60;69.00;;;;;;4992596;28;20220;-65
2023/05/22 00:38:05;;;;;;;5.60;5.20;;;19.60;69.00;;;;;;5003143;28;20192;-65
2023/05/22 00:40:30;;;;;;;5.82;5.32;;;19.60;69.00;;;;;;4995563;28;20184;-66
2023/05/22 00:42:56;;;;;;;5.40;4.90;;;19.60;69.00;;;;;;4992370;28;20200;-63
2023/05/22 00:45:23;;;;;;;5.50;5.00;;;19.60;69.00;;;;;;4997674;28;20204;-65
2023/05/22 00:47:49;;;;;;;5.28;4.88;;;19.60;69.00;;;;;;4995563;28;20188;-65
2023/05/22 00:50:17;;;;;;;5.40;4.90;;;19.60;69.00;;;;;;5020080;28;20200;-66
2023/05/22 00:52:45;;;;;;;5.30;4.90;;;19.60;69.00;;;;;;4992601;28;20195;-66
2023/05/22 00:55:14;;;;;;;5.57;5.07;;;19.60;69.00;;;;;;4992098;28;20188;-65
2023/05/22 00:57:41;;;;;;;5.13;4.72;;;19.60;69.00;;;;;;5005292;28;20200;-65
2023/05/22 01:00:12;;;;;;;5.75;5.22;;;19.60;69.00;;;;;;5028002;28;20712;-65
2023/05/22 01:02:38;;;;;;;6.20;5.60;;;19.60;69.00;;;;;;4995140;28;20200;-64
2023/05/22 01:05:10;;;;;;;5.50;5.03;;;19.60;69.00;;;;;;5008845;28;20259;-65
2023/05/22 01:07:36;;;;;;;5.40;5.00;;;19.50;69.00;;;;;;4999066;28;20226;-65
2023/05/22 01:10:04;;;;;;;6.43;5.90;;;19.60;69.10;;;;;;5008638;28;20256;-65
2023/05/22 01:12:55;;;;;;;5.80;5.28;;;19.60;69.00;;;;;;4999934;28;20239;-65
2023/05/22 01:15:57;;;;;;;5.82;5.32;;;19.60;69.00;;;;;;4994914;28;20226;-65
2023/05/22 01:19:01;;;;;;;5.63;5.18;;;19.60;69.00;;;;;;4992566;28;20246;-64
2023/05/22 01:21:46;;;;;;;5.82;5.18;;;19.60;69.00;;;;;;4995006;28;20184;-65
2023/05/22 01:25:04;;;;;;;5.82;5.07;;;19.50;69.00;;;;;;4991636;28;20674;-65
2023/05/22 01:27:51;;;;;;;5.55;5.05;;;19.60;69.00;;;;;;4999691;28;20208;-65
2023/05/22 01:30:45;;;;;;;5.35;4.85;;;19.50;68.90;;;;;;4991663;28;20212;-66
2023/05/22 01:33:15;;;;;;;5.68;5.18;;;19.50;69.00;;;;;;4991038;28;20193;-64
2023/05/22 01:35:47;;;;;;;5.57;5.18;;;19.50;68.90;;;;;;5004346;28;20213;-65
2023/05/22 01:38:15;;;;;;;5.53;5.13;;;19.50;69.00;;;;;;4987543;28;20667;-65
2023/05/22 01:40:43;;;;;;;5.25;4.85;;;19.50;69.00;;;;;;5011408;28;20212;-65
2023/05/22 01:43:09;;;;;;;5.82;5.32;;;19.50;68.90;;;;;;5011202;28;20187;-64
2023/05/22 01:45:35;;;;;;;6.10;5.60;;;19.50;69.00;;;;;;4994902;28;20187;-64
2023/05/22 01:48:01;;;;;;;5.93;5.43;;;19.50;68.90;;;;;;4994856;28;20180;-65
2023/05/22 01:50:27;;;;;;;6.20;5.60;;;19.50;68.90;;;;;;4991292;28;20204;-65
2023/05/22 01:53:25;;;;;;;5.90;5.40;;;19.50;69.30;;;;;;4991432;28;20235;-65
2023/05/22 01:56:04;;;;;;;6.25;5.75;;;19.50;68.90;;;;;;5007786;28;20208;-65
2023/05/22 01:58:54;;;;;;;5.82;5.32;;;19.50;68.90;;;;;;4999324;28;20700;-63
2023/05/22 02:01:25;;;;;;;5.40;5.00;;;19.50;68.90;;;;;;5021112;28;20200;-65
2023/05/22 02:03:56;;;;;;;5.80;5.30;;;19.50;69.70;;;;;;4994652;28;20616;-65
2023/05/22 02:06:27;;;;;;;5.78;5.28;;;19.50;68.90;;;;;;5010997;28;20223;-65
2023/05/22 02:08:54;;;;;;;5.47;5.07;;;19.50;68.90;;;;;;5010796;28;20303;-64
2023/05/22 02:11:23;;;;;;;5.75;5.25;;;19.50;68.90;;;;;;5011092;28;20188;-65
2023/05/22 02:13:50;;;;;;;6.60;5.88;;;19.50;68.90;;;;;;5026418;28;20267;-65
2023/05/22 02:16:18;;;;;;;5.53;5.13;;;19.50;68.80;;;;;;4999681;28;20209;-64
2023/05/22 02:18:45;;;;;;;5.75;5.25;;;19.50;68.80;;;;;;4999548;28;20227;-65
2023/05/22 02:21:11;;;;;;;5.63;5.13;;;19.50;68.80;;;;;;5019393;28;20224;-64
2023/05/22 02:23:36;;;;;;;5.43;5.03;;;19.50;68.80;;;;;;5002665;28;20196;-64
2023/05/22 02:26:03;;;;;;;5.53;5.07;;;19.50;68.80;;;;;;5027180;28;20303;-64
2023/05/22 02:28:31;;;;;;;5.60;5.18;;;19.50;68.80;;;;;;5027564;28;20207;-63
2023/05/22 02:30:56;;;;;;;5.45;4.97;;;19.50;68.80;;;;;;5030816;28;20279;-65
2023/05/22 02:33:22;;;;;;;5.68;5.18;;;19.50;68.80;;;;;;5014738;28;20176;-65
2023/05/22 02:35:49;;;;;;;6.28;5.78;;;19.50;68.80;;;;;;5014270;28;20207;-65
2023/05/22 02:38:15;;;;;;;5.47;5.00;;;19.50;68.80;;;;;;4997623;28;20192;-64
2023/05/22 02:40:41;;;;;;;5.70;5.20;;;19.50;68.80;;;;;;4997805;28;20191;-64
2023/05/22 02:43:07;;;;;;;5.65;5.15;;;19.50;68.80;;;;;;4994685;28;20184;-65
2023/05/22 02:45:32;;;;;;;5.95;5.45;;;19.50;68.80;;;;;;4977768;28;20189;-65
2023/05/22 02:48:00;;;;;;;5.30;4.82;;;19.50;68.80;;;;;;5021365;28;20195;-65
2023/05/22 02:50:26;;;;;;;5.68;5.18;;;19.50;68.80;;;;;;4997705;28;20214;-65
2023/05/22 02:52:52;;;;;;;5.70;5.20;;;19.50;68.80;;;;;;4997729;28;20279;-66
2023/05/22 02:55:18;;;;;;;5.72;5.20;;;19.50;68.80;;;;;;5013663;28;20198;-65
2023/05/22 02:57:44;;;;;;;6.10;5.60;;;19.50;68.80;;;;;;5013413;28;20180;-65
2023/05/22 03:00:10;;;;;;;5.97;5.38;;;19.50;68.80;;;;;;4997279;28;20194;-65
2023/05/22 03:02:37;;;;;;;5.30;4.90;;;19.40;68.70;;;;;;5013449;28;20208;-65
2023/05/22 03:05:05;;;;;;;6.03;5.53;;;19.50;68.90;;;;;;5013722;28;20188;-64
2023/05/22 03:07:31;;;;;;;5.63;5.15;;;19.50;68.80;;;;;;4997173;28;20235;-65
2023/05/22 03:09:57;;;;;;;5.88;5.38;;;19.50;68.80;;;;;;4997141;28;20266;-65
2023/05/22 03:12:22;;;;;;;6.07;5.57;;;19.40;68.70;;;;;;4993796;28;20181;-65
2023/05/22 03:14:48;;;;;;;5.50;5.00;;;19.40;68.70;;;;;;5019085;28;20212;-65
2023/05/22 03:17:14;;;;;;;5.63;5.20;;;19.40;68.70;;;;;;4997041;28;20204;-65
2023/05/22 03:19:40;;;;;;;5.78;5.28;;;19.40;68.70;;;;;;5013413;28;20194;-65
2023/05/22 03:22:06;;;;;;;5.82;5.30;;;19.50;68.80;;;;;;5013198;28;20192;-64
2023/05/22 03:24:33;;;;;;;6.07;5.60;;;19.40;68.70;;;;;;4997013;28;20192;-65
2023/05/22 03:27:01;;;;;;;5.70;5.20;;;19.40;68.70;;;;;;4996727;28;20294;-65
2023/05/22 03:29:35;;;;;;;6.07;5.47;;;19.40;68.70;;;;;;4993441;28;20274;-65
2023/05/22 03:32:02;;;;;;;5.38;4.97;;;19.40;68.70;;;;;;4996240;28;20213;-65
2023/05/22 03:34:28;;;;;;;5.68;5.18;;;19.40;68.70;;;;;;4993686;28;20184;-65
2023/05/22 03:36:56;;;;;;;5.55;5.13;;;19.40;68.70;;;;;;4994821;28;20645;-65
2023/05/22 03:39:22;;;;;;;6.03;5.53;;;19.40;68.70;;;;;;4993743;28;20227;-64
2023/05/22 03:41:57;;;;;;;5.60;5.10;;;19.40;68.70;;;;;;4987901;28;20192;-65
2023/05/22 03:44:27;;;;;;;5.10;4.70;;;19.40;68.70;;;;;;4993295;28;20283;-65
2023/05/22 03:46:53;;;;;;;6.50;5.90;;;19.40;68.70;;;;;;5002635;28;20313;-64
2023/05/22 03:49:19;;;;;;;5.70;5.15;;;19.40;68.70;;;;;;5012687;28;20212;-65
2023/05/22 03:51:45;;;;;;;5.70;5.20;;;19.40;68.70;;;;;;4996176;28;20246;-64
2023/05/22 03:54:11;;;;;;;5.82;5.32;;;19.40;68.80;;;;;;4996281;28;20184;-64
2023/05/22 03:56:37;;;;;;;5.90;5.38;;;19.40;68.70;;;;;;5012527;28;20200;-64
2023/05/22 03:59:02;;;;;;;5.70;5.20;;;19.40;68.70;;;;;;4996032;28;20630;-66
2023/05/22 04:01:28;;;;;;;5.93;5.35;;;19.40;68.70;;;;;;4996168;28;20211;-65
2023/05/22 04:03:58;;;;;;;5.60;5.20;;;19.40;68.70;;;;;;5012346;28;20199;-65
2023/05/22 04:06:24;;;;;;;5.60;5.10;;;19.40;68.70;;;;;;4992709;28;20263;-65
2023/05/22 04:08:50;;;;;;;6.13;5.53;;;19.40;68.70;;;;;;4993779;28;20211;-65
2023/05/22 04:11:17;;;;;;;5.22;4.82;;;19.40;68.80;;;;;;4995988;28;20207;-65
2023/05/22 04:13:44;;;;;;;5.80;5.30;;;19.40;68.70;;;;;;5012137;28;20188;-65
2023/05/22 04:16:10;;;;;;;5.00;4.60;;;19.40;68.70;;;;;;4995810;28;20200;-66
2023/05/22 04:18:36;;;;;;;5.63;5.13;;;19.40;68.80;;;;;;4995667;28;20191;-65
2023/05/22 04:21:05;;;;;;;5.47;5.07;;;19.40;68.70;;;;;;5012393;28;20195;-65
2023/05/22 04:23:31;;;;;;;5.15;4.75;;;19.40;68.80;;;;;;4992629;28;20197;-66
2023/05/22 04:26:01;;;;;;;5.68;5.13;;;19.40;68.80;;;;;;4994251;28;20718;-65
2023/05/22 04:28:29;;;;;;;5.47;5.00;;;19.40;68.80;;;;;;4995821;28;20183;-65
2023/05/22 04:30:58;;;;;;;5.50;5.10;;;19.40;68.80;;;;;;4995687;28;20188;-65
2023/05/22 04:33:24;;;;;;;5.30;4.88;;;19.40;68.80;;;;;;4995800;28;20172;-64
2023/05/22 04:35:50;;;;;;;5.38;4.97;;;19.40;68.80;;;;;;4995631;28;20203;-65
2023/05/22 04:38:17;;;;;;;5.32;4.93;;;19.40;68.80;;;;;;4995382;28;20176;-65
2023/05/22 04:40:44;;;;;;;5.18;4.75;;;19.40;68.80;;;;;;4992478;28;20279;-66
2023/05/22 04:43:11;;;;;;;5.38;4.90;;;19.40;68.80;;;;;;4992340;28;20304;-65
2023/05/22 04:45:38;;;;;;;5.40;5.00;;;19.40;68.80;;;;;;4992085;28;20196;-65
2023/05/22 04:48:04;;;;;;;5.93;5.30;;;19.40;68.80;;;;;;4992090;28;20187;-65
2023/05/22 04:50:34;;;;;;;5.38;4.97;;;19.40;68.70;;;;;;4992231;28;20251;-65
2023/05/22 04:53:04;;;;;;;5.85;5.28;;;19.40;68.70;;;;;;4994430;28;20203;-65
2023/05/22 04:55:33;;;;;;;5.35;4.95;;;19.40;68.80;;;;;;4995614;28;20184;-65
2023/05/22 04:57:59;;;;;;;5.55;5.10;;;19.40;68.80;;;;;;5011537;28;20215;-65
2023/05/22 05:00:27;;;;;;;5.47;4.97;;;19.40;68.80;;;;;;5011567;28;20203;-66
2023/05/22 05:02:53;;;;;;;5.20;4.80;;;19.40;68.70;;;;;;5011663;28;20203;-66
2023/05/22 05:05:20;;;;;;;5.10;4.70;;;19.40;68.80;;;;;;4995510;28;20192;-66
2023/05/22 05:07:48;;;;;;;5.18;4.78;;;19.40;68.80;;;;;;4995134;28;20192;-66
2023/05/22 05:10:15;;;;;;;5.68;5.20;;;19.40;68.80;;;;;;4995368;28;20212;-65
2023/05/22 05:12:41;;;;;;;5.40;5.00;;;19.40;68.80;;;;;;4995707;28;20172;-66
2023/05/22 05:15:08;;;;;;;5.38;4.88;;;19.40;68.80;;;;;;4995147;28;20187;-66
2023/05/22 05:17:34;;;;;;;5.70;5.25;;;19.50;69.00;;;;;;4991598;28;20212;-66
2023/05/22 05:20:00;;;;;;;5.88;5.38;;;19.50;69.00;;;;;;4991862;28;20196;-65
2023/05/22 05:22:26;;;;;;;5.78;5.28;;;19.50;69.00;;;;;;5006215;28;20176;-66
2023/05/22 05:24:52;;;;;;;5.30;4.90;;;19.50;69.80;;;;;;4995062;28;20204;-65
2023/05/22 05:27:18;;;;;;;5.53;5.03;;;19.50;69.00;;;;;;5011062;28;20691;-65
2023/05/22 05:29:44;;;;;;;6.10;5.60;;;19.50;69.00;;;;;;5011114;28;20261;-65
2023/05/22 05:32:20;;;;;;;5.63;5.22;;;19.50;69.10;;;;;;5015373;28;20180;-66
2023/05/22 05:34:52;;;;;;;5.75;5.25;;;19.50;69.10;;;;;;5027753;28;20262;-65
2023/05/22 05:37:22;;;;;;;5.78;5.28;;;19.50;69.00;;;;;;5027815;28;20320;-65
2023/05/22 05:39:48;;;;;;;5.80;5.30;;;19.50;69.10;;;;;;4994949;28;20191;-66
2023/05/22 05:42:16;;;;;;;5.50;5.03;;;19.50;69.20;;;;;;4994904;28;20186;-65
2023/05/22 05:44:43;;;;;;;5.22;4.82;;;19.50;69.10;;;;;;4991958;28;20276;-66
2023/05/22 05:47:10;;;;;;;5.85;5.25;;;19.50;69.20;;;;;;4991615;28;20209;-66
2023/05/22 05:49:36;;;;;;;5.68;5.18;;;19.50;69.10;;;;;;4995553;28;20242;-65
2023/05/22 05:52:04;;;;;;;6.18;5.57;;;19.50;69.20;;;;;;5008031;28;20348;-66
2023/05/22 05:54:32;;;;;;;5.07;4.68;;;19.50;69.20;;;;;;4991473;28;20192;-65
2023/05/22 05:57:03;;;;;;;6.30;5.70;;;19.50;69.30;;;;;;4994615;28;20220;-65
2023/05/22 05:59:30;;;;;;;5.90;5.40;;;19.50;69.40;;;;;;4994621;28;20196;-65
2023/05/22 06:02:15;;;;;;;5.85;5.32;;;19.50;69.40;;;;;;5013032;28;20215;-65
2023/05/22 06:04:41;;;;;;;6.40;5.80;;;19.50;69.30;;;;;;5001828;28;20189;-65
2023/05/22 06:07:08;;;;;;;6.18;5.68;;;19.50;69.40;;;;;;5006841;28;20204;-66
2023/05/22 06:09:44;;;;;;;5.38;4.97;;;19.50;69.40;;;;;;4999751;28;20250;-66
2023/05/22 06:12:16;;;;;;;5.85;5.35;;;19.50;69.40;;;;;;5014611;28;20281;-66
2023/05/22 06:14:44;;;;;;;6.13;5.63;;;19.50;69.40;;;;;;5014629;28;20192;-66
2023/05/22 06:17:09;;;;;;;6.03;5.53;;;19.50;69.50;;;;;;5014352;28;20216;-65
2023/05/22 06:19:38;;;;;;;6.07;5.57;;;19.50;69.40;;;;;;5006752;28;20191;-64
2023/05/22 06:22:04;;;;;;;5.40;5.00;;;19.50;69.60;;;;;;5011996;28;20219;-65
2023/05/22 06:24:31;;;;;;;5.68;5.03;;;19.50;69.60;;;;;;5000968;28;20327;-65
2023/05/22 06:27:01;;;;;;;6.00;5.50;;;19.50;69.60;;;;;;5012439;28;20208;-65
2023/05/22 06:29:27;;;;;;;6.20;5.55;;;19.50;69.60;;;;;;5024860;28;20254;-65
2023/05/22 06:31:54;;;;;;;5.78;5.32;;;19.50;69.60;;;;;;5022636;28;20189;-66
2023/05/22 06:34:21;;;;;;;6.20;5.60;;;19.50;69.70;;;;;;4998076;28;20188;-65
2023/05/22 06:36:49;;;;;;;5.95;5.45;;;19.60;69.90;;;;;;4998078;28;20192;-66
2023/05/22 06:39:17;;;;;;;5.82;5.32;;;19.50;69.70;;;;;;5006795;28;20184;-66
2023/05/22 06:42:01;;;;;;;5.40;5.00;;;19.60;69.80;;;;;;5018067;28;20267;-65
2023/05/22 06:44:47;;;;;;;5.90;5.40;;;19.60;69.90;;;;;;5016309;28;20208;-65
2023/05/22 06:47:13;;;;;;;5.80;5.30;;;19.60;69.80;;;;;;5022376;28;20199;-65
2023/05/22 06:49:40;;;;;;;6.18;5.57;;;19.60;69.90;;;;;;4997646;28;20246;-66
2023/05/22 06:52:06;;;;;;;5.68;5.28;;;19.60;69.90;;;;;;5011325;28;20207;-66
2023/05/22 06:54:31;;;;;;;6.13;5.53;;;19.60;69.90;;;;;;5018811;28;20197;-65
2023/05/22 06:56:58;;;;;;;5.72;5.32;;;19.60;70.00;;;;;;5003523;28;20223;-65
2023/05/22 06:59:26;;;;;;;6.30;5.40;;;19.60;70.00;;;;;;5008406;28;20227;-66
2023/05/22 07:02:04;;;;;;;5.65;5.15;;;19.60;70.10;;;;;;5020600;28;20278;-66
2023/05/22 07:04:54;;;;;;;6.40;5.88;;;19.60;70.10;;;;;;5001580;28;20208;-66
2023/05/22 07:07:35;;;;;;;6.50;5.90;;;19.60;70.20;;;;;;5018347;28;20212;-65
2023/05/22 07:10:02;;;;;;;6.70;5.47;;;19.60;70.30;;;;;;5002105;28;20243;-65
2023/05/22 07:12:28;;;;;;;5.70;5.20;;;19.60;70.30;;;;;;5007772;28;20271;-66
2023/05/22 07:14:55;;;;;;;5.90;5.32;;;19.60;70.50;;;;;;4997169;28;20300;-66
2023/05/22 07:17:23;;;;;;;6.03;5.53;;;19.60;70.40;;;;;;5008418;28;20624;-66
2023/05/22 07:19:50;;;;;;;5.97;5.47;;;19.60;70.50;;;;;;5010075;28;20275;-66
2023/05/22 07:22:16;;;;;;;6.20;5.70;;;19.60;70.50;;;;;;5022263;28;20242;-65
2023/05/22 07:24:44;;;;;;;6.43;5.82;;;19.60;70.50;;;;;;5013352;28;20184;-66
2023/05/22 07:27:12;;;;;;;6.85;6.15;;;19.60;70.50;;;;;;4997125;28;20216;-66
2023/05/22 07:29:39;;;;;;;6.68;6.07;;;19.60;70.30;;;;;;5006338;28;20216;-66
2023/05/22 07:32:07;;;;;;;6.75;6.13;;;19.60;70.70;;;;;;5020366;28;20273;-66
2023/05/22 07:34:34;;;;;;;6.47;5.88;;;19.60;70.30;;;;;;4999072;28;20201;-65
2023/05/22 07:37:15;;;;;;;6.72;6.13;;;19.60;70.60;;;;;;5026254;28;20339;-66
2023/05/22 07:39:45;;;;;;;6.97;6.35;;;19.60;70.80;;;;;;5001828;28;20196;-66
2023/05/22 07:42:13;;;;;;;6.60;6.00;;;19.60;70.80;;;;;;5001839;28;20582;-66
2023/05/22 07:44:46;;;;;;;6.85;6.25;;;19.70;70.60;;;;;;5009337;28;20195;-66
2023/05/22 07:47:11;;;;;;;6.97;6.25;;;19.70;70.90;;;;;;5020973;28;20266;-66
2023/05/22 07:49:38;;;;;;;6.68;6.07;;;19.70;70.80;;;;;;4998062;28;20225;-65
2023/05/22 07:52:05;;;;;;;6.85;6.25;;;19.70;70.70;;;;;;5011624;28;20180;-65
2023/05/22 07:54:31;;;;;;;6.38;5.80;;;19.70;70.70;;;;;;4996478;28;20279;-65
2023/05/22 07:56:57;;;;;;;6.95;6.30;;;19.70;70.80;;;;;;5011449;28;20342;-64
2023/05/22 07:59:26;;;;;;;7.00;6.40;;;19.70;70.80;;;;;;5001119;28;20192;-66
2023/05/22 08:01:56;;;;;;;7.00;6.40;;;19.80;70.70;;;;;;5001815;28;20265;-66
2023/05/22 08:04:22;;;;;;;7.15;6.50;;;19.80;70.70;;;;;;5020742;28;20216;-65
2023/05/22 08:06:47;;;;;;;6.72;6.13;;;19.80;70.80;;;;;;5012845;28;20206;-65
2023/05/22 08:09:13;;;;;;;6.18;5.57;;;19.80;70.90;;;;;;5028756;28;20646;-66
2023/05/22 08:11:41;;;;;;;6.35;5.78;;;19.80;70.90;;;;;;4996482;28;20562;-65
2023/05/22 08:14:07;;;;;;;6.90;6.20;;;19.80;70.90;;;;;;4988313;28;20224;-65
2023/05/22 08:16:32;;;;;;;6.03;5.43;;;19.80;70.80;;;;;;5006731;28;20209;-65
2023/05/22 08:18:58;;;;;;;6.28;5.68;;;19.80;70.70;;;;;;5018118;28;20208;-66
2023/05/22 08:21:24;;;;;;;6.50;5.90;;;19.80;70.60;;;;;;5007837;28;20289;-65
2023/05/22 08:23:50;;;;;;;6.05;5.50;;;19.80;70.60;;;;;;5008698;28;20207;-65
2023/05/22 08:26:15;;;;;;;6.20;5.70;;;19.80;70.70;;;;;;5020564;28;20220;-65
2023/05/22 08:28:43;;;;;;;6.05;5.55;;;19.80;70.70;;;;;;5020228;28;20224;-65
2023/05/22 08:31:12;;;;;;;6.55;6.05;;;19.90;70.70;;;;;;5001804;28;20583;-65
2023/05/22 08:33:38;;;;;;;6.15;5.65;;;19.90;70.60;;;;;;5006910;28;20666;-65
2023/05/22 08:36:05;;;;;;;6.18;5.68;;;19.90;70.50;;;;;;5019868;28;20315;-66
2023/05/22 08:38:30;;;;;;;6.28;5.78;;;19.90;70.50;;;;;;5011782;28;20574;-65
2023/05/22 08:40:57;;;;;;;5.93;5.43;;;19.90;70.50;;;;;;5003405;28;20193;-65
2023/05/22 08:43:23;;;;;;;5.93;5.32;;;19.90;70.60;;;;;;5016835;28;20188;-65
2023/05/22 08:46:02;;;;;;;6.03;5.53;;;19.90;70.40;;;;;;5000111;28;20212;-65
2023/05/22 08:48:32;;;;;;;6.43;5.78;;;19.90;70.40;;;;;;5016511;28;20212;-65
2023/05/22 08:51:03;;;;;;;6.00;5.50;;;19.90;70.40;;;;;;5017385;28;20193;-66
2023/05/22 08:53:34;;;;;;;6.30;5.78;;;19.90;70.70;;;;;;5013315;28;20188;-65
2023/05/22 08:56:03;;;;;;;5.85;5.38;;;20.00;70.80;;;;;;5011932;28;20235;-65
2023/05/22 08:58:33;;;;;;;6.25;5.65;;;20.00;71.10;;;;;;5011421;28;20658;-65
2023/05/22 09:01:00;;;;;;;5.65;5.22;;;20.00;70.80;;;;;;5010757;28;20206;-65
2023/05/22 09:03:31;;;;;;;5.38;4.97;;;20.00;70.90;;;;;;4994103;28;20195;-65
2023/05/22 09:05:58;;;;;;;5.57;5.03;;;19.90;70.80;;;;;;5008154;28;20593;-65
2023/05/22 09:08:25;;;;;;;6.03;5.53;;;20.00;70.90;;;;;;4995746;28;20184;-66
2023/05/22 09:10:51;;;;;;;6.20;5.70;;;20.00;71.20;;;;;;4995104;28;20652;-65
2023/05/22 09:13:26;;;;;;;5.75;5.25;;;20.00;70.80;;;;;;5003295;28;20218;-65
2023/05/22 09:15:57;;;;;;;5.78;5.28;;;20.00;71.00;;;;;;4995285;28;20211;-65
2023/05/22 09:18:27;;;;;;;6.05;5.55;;;20.00;70.90;;;;;;4987654;28;20203;-65
2023/05/22 09:20:56;;;;;;;6.13;5.63;;;20.00;70.80;;;;;;5011259;28;20246;-65
2023/05/22 09:23:24;;;;;;;6.07;5.57;;;20.00;71.00;;;;;;4989933;28;20199;-66
2023/05/22 09:25:55;;;;;;;5.78;5.22;;;20.00;71.10;;;;;;4993232;28;20221;-66
2023/05/22 09:28:21;;;;;;;6.10;5.60;;;20.00;71.00;;;;;;4991559;28;20181;-66
2023/05/22 09:30:49;;;;;;;6.22;5.70;;;20.00;71.20;;;;;;5002468;28;20188;-66
2023/05/22 09:33:16;;;;;;;6.18;5.57;;;20.00;71.00;;;;;;4995077;28;20190;-66
2023/05/22 09:35:42;;;;;;;5.88;5.38;;;20.00;71.00;;;;;;4994769;28;20687;-65
2023/05/22 09:38:09;;;;;;;6.10;5.07;;;20.00;71.20;;;;;;4993117;28;20193;-65
2023/05/22 09:40:39;;;;;;;5.47;4.97;;;20.00;71.30;;;;;;4995654;28;20287;-65
2023/05/22 09:43:09;;;;;;;5.68;5.18;;;20.00;71.20;;;;;;4996780;28;20211;-65
2023/05/22 09:45:36;;;;;;;5.50;5.00;;;19.90;71.30;;;;;;4995543;28;20228;-65
2023/05/22 09:48:04;;;;;;;6.03;5.53;;;20.00;71.50;;;;;;5004266;28;20289;-65
2023/05/22 09:50:30;;;;;;;5.57;5.07;;;20.00;71.40;;;;;;5015143;28;20218;-66
2023/05/22 09:53:04;;;;;;;5.68;5.28;;;20.00;71.40;;;;;;4999131;28;20196;-66
2023/05/22 09:55:30;;;;;;;5.85;5.28;;;20.00;71.60;;;;;;5000222;28;20172;-66
2023/05/22 09:58:00;;;;;;;6.00;5.50;;;20.00;71.80;;;;;;4998496;28;20184;-66
2023/05/22 10:00:27;;;;;;;5.60;5.13;;;20.00;71.60;;;;;;5023616;28;20204;-66
2023/05/22 10:03:04;;;;;;;5.43;5.03;;;20.00;71.70;;;;;;4998615;28;20187;-66
2023/05/22 10:05:31;;;;;;;6.10;5.60;;;20.00;71.80;;;;;;4983970;28;20202;-66
2023/05/22 10:08:09;;;;;;;6.15;5.55;;;20.00;71.70;;;;;;4998253;28;20196;-66
2023/05/22 10:10:37;;;;;;;6.15;5.30;;;20.00;71.90;;;;;;4998406;28;20207;-65
2023/05/22 10:13:05;;;;;;;5.30;4.80;;;20.00;72.10;;;;;;5014770;28;20198;-65
2023/05/22 10:15:31;;;;;;;5.90;5.30;;;20.00;72.10;;;;;;5018502;28;20225;-65
2023/05/22 10:18:00;;;;;;;5.78;5.38;;;20.00;72.00;;;;;;5011367;28;20203;-65
2023/05/22 10:20:28;;;;;;;5.45;5.00;;;20.00;72.10;;;;;;5023353;28;20188;-65
2023/05/22 10:22:55;;;;;;;5.53;5.03;;;20.00;72.20;;;;;;5014871;28;20246;-65
2023/05/22 10:25:21;;;;;;;5.90;5.40;;;20.00;72.10;;;;;;5014719;28;20180;-65
2023/05/22 10:27:51;;;;;;;5.07;4.68;;;20.00;71.90;;;;;;5014366;28;20192;-64
2023/05/22 10:30:41;;;;;;;5.68;5.10;;;20.00;71.80;;;;;;4998044;28;20212;-64
2023/05/22 10:33:46;;;;;;;5.75;5.25;;;20.00;71.90;;;;;;5014154;28;20199;-66
2023/05/22 10:37:05;;;;;;;6.07;5.47;;;20.00;71.80;;;;;;5006043;28;20223;-65
2023/05/22 10:40:00;;;;;;;5.95;5.38;;;20.00;72.50;;;;;;5010046;28;20234;-66
2023/05/22 10:42:31;;;;;;;5.55;5.10;;;20.00;72.70;;;;;;4995006;28;20189;-66
2023/05/22 10:44:59;;;;;;;5.75;5.25;;;20.00;72.80;;;;;;4994462;28;20193;-66
2023/05/22 10:47:25;;;;;;;5.43;5.00;;;20.00;72.70;;;;;;4989507;28;20593;-65
2023/05/22 10:50:11;;;;;;;6.18;5.68;;;20.00;72.70;;;;;;4996989;28;20226;-66
2023/05/22 10:52:38;;;;;;;6.50;5.82;;;20.00;72.90;;;;;;4994440;28;20189;-65
2023/05/22 10:55:09;;;;;;;6.35;5.85;;;20.00;72.30;;;;;;4978191;28;20185;-66
2023/05/22 10:57:39;;;;;;;6.07;5.47;;;20.00;72.90;;;;;;4978258;28;20212;-65
2023/05/22 11:00:15;;;;;;;5.65;5.25;;;20.00;72.80;;;;;;4995153;28;20222;-65
2023/05/22 11:02:45;;;;;;;6.55;5.95;;;20.00;72.60;;;;;;4997510;28;20286;-66
2023/05/22 11:05:20;;;;;;;5.90;5.40;;;20.00;72.90;;;;;;5014138;28;20219;-66
2023/05/22 11:07:47;;;;;;;5.75;5.25;;;20.00;72.90;;;;;;4999464;28;20196;-66
2023/05/22 11:10:13;;;;;;;6.22;5.72;;;20.00;72.90;;;;;;4994425;28;20224;-65
2023/05/22 11:12:40;;;;;;;6.45;5.57;;;20.00;72.90;;;;;;4994160;28;20276;-65
2023/05/22 11:15:09;;;;;;;5.57;5.18;;;20.00;72.90;;;;;;5019120;28;20216;-66
2023/05/22 11:17:38;;;;;;;6.50;5.80;;;20.00;72.90;;;;;;4997073;28;20216;-65
2023/05/22 11:20:21;;;;;;;5.55;5.15;;;20.00;73.00;;;;;;4997235;28;20184;-65
2023/05/22 11:23:00;;;;;;;7.65;6.00;;;20.10;73.40;;;;;;4993833;28;20222;-65
2023/05/22 11:25:28;;;;;;;5.78;5.28;;;20.10;73.00;;;;;;5010214;28;20287;-65
2023/05/22 11:27:55;;;;;;;6.32;5.82;;;20.10;73.70;;;;;;4993649;28;20282;-65
2023/05/22 11:30:25;;;;;;;6.55;6.05;;;20.00;73.50;;;;;;4999242;28;20208;-66
2023/05/22 11:32:52;;;;;;;6.28;5.68;;;20.00;73.40;;;;;;5014871;28;20644;-66
2023/05/22 11:35:19;;;;;;;9.75;5.80;;;20.10;73.20;;;;;;5029567;28;20668;-66
2023/05/22 11:37:47;;;;;;;5.85;5.35;;;20.10;73.00;;;;;;4993482;28;20185;-65
2023/05/22 11:40:25;;;;;;;6.07;5.47;;;20.10;73.00;;;;;;5011973;28;20210;-66
2023/05/22 11:42:55;;;;;;;6.03;5.53;;;20.10;73.00;;;;;;4993956;28;20195;-66
2023/05/22 11:45:22;;;;;;;6.50;5.85;;;20.10;73.00;;;;;;5029370;28;20180;-65
2023/05/22 11:47:48;;;;;;;6.18;5.68;;;20.10;73.00;;;;;;5014001;28;20193;-66
2023/05/22 11:50:14;;;;;;;6.40;5.90;;;20.10;72.90;;;;;;5010013;28;20208;-65
2023/05/22 11:52:42;;;;;;;6.10;5.55;;;20.10;73.00;;;;;;5018066;28;20231;-66
2023/05/22 11:55:11;;;;;;;6.32;5.82;;;20.10;73.00;;;;;;5022558;28;20173;-66
2023/05/22 11:57:37;;;;;;;6.20;5.63;;;20.10;73.00;;;;;;4992899;28;20778;-67
2023/05/22 12:00:06;;;;;;;7.05;6.43;;;20.10;73.00;;;;;;4983205;28;20176;-66
2023/05/22 12:02:45;;;;;;;6.13;5.53;;;20.10;73.00;;;;;;5008411;28;20274;-65
2023/05/22 12:05:10;;;;;;;6.75;6.05;;;20.10;73.00;;;;;;5009447;28;20235;-66
2023/05/22 12:07:37;;;;;;;6.18;5.63;;;20.10;73.00;;;;;;5009148;28;20306;-67
2023/05/22 12:10:06;;;;;;;6.22;5.72;;;20.10;73.00;;;;;;5009333;28;20244;-65
2023/05/22 12:12:32;;;;;;;6.80;6.20;;;20.10;72.40;;;;;;5009380;28;20185;-66
2023/05/22 12:14:58;;;;;;;5.70;5.28;;;20.10;72.50;;;;;;5009306;28;20291;-66
2023/05/22 12:17:23;;;;;;;6.45;5.78;;;20.10;72.60;;;;;;4992682;28;20665;-66
2023/05/22 12:19:49;;;;;;;5.82;5.32;;;20.20;72.70;;;;;;4992876;28;20187;-66
2023/05/22 12:22:15;;;;;;;6.00;5.50;;;20.20;72.90;;;;;;4992796;28;20185;-65
2023/05/22 12:24:46;;;;;;;6.20;5.57;;;20.20;73.20;;;;;;5022078;28;20279;-65
2023/05/22 12:27:13;;;;;;;5.93;5.43;;;20.20;72.50;;;;;;4995716;28;20219;-66
2023/05/22 12:29:41;;;;;;;5.70;5.15;;;20.20;72.40;;;;;;4995714;28;20232;-66
2023/05/22 12:32:12;;;;;;;5.78;5.28;;;20.20;72.20;;;;;;4995725;28;20199;-66
2023/05/22 12:34:44;;;;;;;7.13;5.95;;;20.20;72.10;;;;;;4995682;28;20187;-65
2023/05/22 12:37:27;;;;;;;5.95;5.45;;;20.20;72.40;;;;;;5011806;28;20211;-65
2023/05/22 12:39:57;;;;;;;6.88;5.70;;;20.20;72.40;;;;;;5028463;28;20576;-66
2023/05/22 12:42:27;;;;;;;6.07;5.32;;;20.20;72.50;;;;;;5028526;28;20278;-65
2023/05/22 12:44:56;;;;;;;5.85;5.35;;;20.20;72.50;;;;;;5013940;28;20196;-66
2023/05/22 12:47:23;;;;;;;6.30;5.80;;;20.20;72.40;;;;;;4994058;28;20204;-66
2023/05/22 12:49:50;;;;;;;6.40;5.35;;;20.10;72.40;;;;;;5028126;28;20250;-66
2023/05/22 12:52:16;;;;;;;5.75;5.25;;;20.20;72.50;;;;;;5028474;28;20326;-66
2023/05/22 12:54:41;;;;;;;6.07;5.28;;;20.20;72.40;;;;;;4995677;28;20259;-65
2023/05/22 12:57:07;;;;;;;6.20;5.70;;;20.10;72.50;;;;;;4995473;28;20222;-66
2023/05/22 12:59:35;;;;;;;6.60;5.97;;;20.10;72.40;;;;;;5011941;28;20195;-66